aviador You're here:

KSBA Decoded Metar

SANTA BARBARA in CA, USA
Report Time2018-05-26 14:53:00
UTC Time2018-05-26 15:43:29
Flight Rules vfr VFR
Wind260° at 05 kt
W.Decomp.*RWY 25: 5.0 kt HW 0.3 kt LCW
RWY 33: 0.5 kt HW 5 kt LCW
W.Rank260° ranks 1
Current wind is below 260° avg. (7.9)
Visibility9999 m
Phenomena:N/A
Clouds:N/A
Expected CloudBase > 2,800 ft AGL from Temp-Dew spread
CeilingNone
Temp16°C (ISA +1)
Dew Point09°C (63% RH)
AAT14.0°C
QNH1016 hPa
Density Alt184 ft
Elevation10 ft
Report Wrong Elevation
Raw Report
KSBA 261453Z 26005KT 10SM CLR 16/09 A3001 RMK AO2 SLP160 T01610089
51006=

Extra information for KSBA:More info

Metar Taf Metar & Taf Last 4 Metars F.Rules Stats Wind Profile Meteogram Temp Stats Airport Information Weather charts Add Link Nearby VenuesMetar ALERT Operation Metar Decoded Social comments

AIRNAV info for KSBA